Time;durP1;ratioP1;P1;durP2;ratioP2;P2;SDS_P1;SDS_P2;PMS_P1;PMS_P2;Temp;Humidity;BMP_temperature;BMP_pressure;BME280_temperature;BME280_humidity;BME280_pressure;Samples;Min_cycle;Max_cycle;Signal;HPM_P1;HPM_P2
2022/03/19 00:02:20;;;;;;;19.25;8.25;;;;;;;10.52;65.29;104575.97;4951961;28;20046;-60
2022/03/19 00:04:45;;;;;;;20.13;7.60;;;;;;;10.35;65.61;104574.75;4956659;28;20451;-56
2022/03/19 00:07:11;;;;;;;20.40;7.28;;;;;;;10.33;65.84;104575.44;4964527;28;20513;-57
2022/03/19 00:09:38;;;;;;;21.83;7.43;;;;;;;10.41;65.45;104571.69;4923796;28;20803;-56
2022/03/19 00:12:04;;;;;;;26.35;7.70;;;;;;;10.33;65.49;104578.03;4961257;28;20113;-57
2022/03/19 00:14:30;;;;;;;24.38;7.40;;;;;;;10.41;65.37;104584.72;4949044;28;20050;-57
2022/03/19 00:16:56;;;;;;;19.25;7.00;;;;;;;10.38;65.31;104574.06;4960125;28;20549;-57
2022/03/19 00:19:21;;;;;;;14.95;7.22;;;;;;;10.36;65.61;104581.81;4961194;28;20464;-55
2022/03/19 00:21:47;;;;;;;19.63;7.28;;;;;;;10.31;65.44;104583.13;4964811;28;20042;-52
2022/03/19 00:24:12;;;;;;;22.30;7.05;;;;;;;10.34;65.29;104582.47;4957392;28;20042;-55
2022/03/19 00:26:38;;;;;;;24.35;7.70;;;;;;;10.32;65.29;104579.75;4946520;28;20475;-56
2022/03/19 00:29:03;;;;;;;22.98;7.53;;;;;;;10.13;65.62;104580.03;4959725;28;20038;-56
2022/03/19 00:31:29;;;;;;;20.08;7.22;;;;;;;10.18;66.02;104572.63;4952176;28;20049;-55
2022/03/19 00:33:55;;;;;;;17.73;7.13;;;;;;;10.17;65.87;104581.22;4958261;28;20057;-56
2022/03/19 00:36:20;;;;;;;17.58;6.97;;;;;;;10.12;65.70;104578.22;4962391;28;20038;-55
2022/03/19 00:38:45;;;;;;;17.90;7.20;;;;;;;10.06;65.80;104577.78;4943719;28;20489;-57
2022/03/19 00:41:11;;;;;;;21.35;7.32;;;;;;;9.97;66.28;104582.31;4960285;28;20049;-56
2022/03/19 00:43:36;;;;;;;18.45;7.68;;;;;;;9.99;66.60;104582.44;4962112;28;20512;-55
2022/03/19 00:46:02;;;;;;;16.98;7.38;;;;;;;9.99;66.07;104592.88;4956346;28;20034;-56
2022/03/19 00:48:27;;;;;;;18.73;7.05;;;;;;;9.92;66.74;104594.09;4943041;28;20052;-56
2022/03/19 00:50:52;;;;;;;18.40;7.78;;;;;;;9.90;66.15;104584.34;4957050;28;20053;-56
2022/03/19 00:53:18;;;;;;;22.10;7.20;;;;;;;9.83;66.80;104590.78;4963234;28;20039;-56
2022/03/19 00:55:43;;;;;;;15.88;6.93;;;;;;;9.85;67.02;104591.81;4954435;28;20046;-56
2022/03/19 00:58:08;;;;;;;18.90;7.22;;;;;;;9.83;66.68;104582.97;4956935;28;20046;-55
2022/03/19 01:00:34;;;;;;;22.02;7.88;;;;;;;9.82;66.77;104586.38;4945675;28;20070;-56
2022/03/19 01:02:59;;;;;;;21.70;7.90;;;;;;;9.77;67.13;104578.22;4956121;28;20466;-54
2022/03/19 01:05:25;;;;;;;20.17;7.10;;;;;;;9.75;67.35;104586.72;4948800;28;20392;-57
2022/03/19 01:07:55;;;;;;;22.63;7.75;;;;;;;9.72;67.24;104586.47;4965238;28;20291;-55
2022/03/19 01:10:26;;;;;;;21.00;7.55;;;;;;;9.71;67.53;104588.16;4944686;28;20030;-56
2022/03/19 01:12:53;;;;;;;29.52;8.50;;;;;;;9.72;67.31;104591.69;4956824;28;20050;-53
2022/03/19 01:15:19;;;;;;;28.70;8.52;;;;;;;9.68;67.72;104590.56;4958576;28;20498;-57
2022/03/19 01:17:45;;;;;;;23.92;8.43;;;;;;;9.66;67.45;104581.72;4962235;28;20052;-57
2022/03/19 01:20:12;;;;;;;21.15;8.05;;;;;;;9.58;68.27;104576.69;4952945;28;20049;-54
2022/03/19 01:22:39;;;;;;;19.13;7.93;;;;;;;9.71;67.52;104582.97;4937991;28;20313;-55
2022/03/19 01:25:06;;;;;;;19.52;7.85;;;;;;;9.72;67.22;104576.97;4959391;28;20123;-57
2022/03/19 01:27:32;;;;;;;21.73;8.23;;;;;;;9.60;67.27;104567.31;4958530;28;20451;-56
2022/03/19 01:29:58;;;;;;;22.25;8.00;;;;;;;9.59;67.54;104569.00;4956050;28;20048;-56
2022/03/19 01:32:23;;;;;;;20.83;7.95;;;;;;;9.57;67.28;104569.69;4948170;28;20050;-58
2022/03/19 01:34:49;;;;;;;27.30;8.98;;;;;;;9.48;68.01;104568.97;4960918;28;20143;-57
2022/03/19 01:37:14;;;;;;;25.98;8.60;;;;;;;9.41;68.27;104571.91;4955682;28;20136;-54
2022/03/19 01:39:40;;;;;;;25.23;8.52;;;;;;;9.52;68.13;104569.31;4960695;28;20506;-55
2022/03/19 01:42:06;;;;;;;22.50;8.25;;;;;;;9.55;67.86;104566.06;4953933;28;20046;-54
2022/03/19 01:44:31;;;;;;;25.15;8.52;;;;;;;9.48;68.14;104563.78;4947894;28;20042;-56
2022/03/19 01:47:03;;;;;;;20.60;7.90;;;;;;;9.44;68.17;104561.72;4961625;28;20045;-56
2022/03/19 01:49:31;;;;;;;23.05;8.25;;;;;;;9.44;68.26;104561.72;4941190;28;20132;-57
2022/03/19 01:51:57;;;;;;;23.20;8.10;;;;;;;9.45;67.71;104561.84;4935915;28;20093;-56
2022/03/19 01:54:27;;;;;;;21.02;8.25;;;;;;;9.47;67.60;104562.84;4950464;28;20793;-60
2022/03/19 01:56:54;;;;;;;23.58;7.90;;;;;;;9.47;67.44;104554.13;4956612;28;20034;-56
2022/03/19 01:59:23;;;;;;;19.75;7.47;;;;;;;9.40;67.64;104555.34;4950891;28;20035;-54
2022/03/19 02:01:49;;;;;;;18.00;7.50;;;;;;;9.36;67.42;104548.13;4959059;28;20100;-55
2022/03/19 02:04:15;;;;;;;20.13;7.13;;;;;;;9.37;67.33;104539.53;4949907;28;20069;-54
2022/03/19 02:06:40;;;;;;;20.58;7.75;;;;;;;9.36;67.27;104548.13;4948355;28;20160;-56
2022/03/19 02:09:06;;;;;;;20.63;7.32;;;;;;;9.34;67.27;104542.78;4961870;28;20783;-55
2022/03/19 02:11:34;;;;;;;17.65;7.07;;;;;;;9.28;67.08;104542.31;4961754;28;20038;-55
2022/03/19 02:14:00;;;;;;;16.60;6.93;;;;;;;9.30;67.25;104545.03;4961205;28;20042;-54
2022/03/19 02:16:27;;;;;;;25.77;7.60;;;;;;;9.15;67.83;104541.28;4957762;28;20053;-54
2022/03/19 02:18:52;;;;;;;18.00;6.78;;;;;;;9.29;67.29;104541.53;4963964;28;20497;-55
2022/03/19 02:21:18;;;;;;;17.17;6.80;;;;;;;9.36;66.42;104537.69;4961890;28;20065;-56
2022/03/19 02:26:27;;;;;;;19.80;6.65;;;;;;;9.38;65.99;104536.13;4957485;28;20052;-55
2022/03/19 02:28:53;;;;;;;17.55;6.57;;;;;;;9.41;65.56;104533.75;4961939;28;20038;-56
2022/03/19 02:31:19;;;;;;;14.38;6.40;;;;;;;9.34;65.91;104524.56;4961692;28;20030;-55
2022/03/19 02:33:44;;;;;;;22.90;6.75;;;;;;;9.35;65.53;104528.06;4958352;28;20054;-56
2022/03/19 02:36:09;;;;;;;21.33;6.50;;;;;;;9.22;66.13;104535.72;4966446;28;20051;-56
2022/03/19 02:38:35;;;;;;;20.85;6.63;;;;;;;9.23;66.02;104528.03;4949425;28;20120;-58
2022/03/19 02:41:04;;;;;;;17.52;6.35;;;;;;;9.21;66.05;104523.53;4963938;28;20125;-57
2022/03/19 02:43:30;;;;;;;22.10;6.47;;;;;;;9.16;66.30;104520.53;4950723;28;20045;-54
2022/03/19 02:45:55;;;;;;;22.58;6.80;;;;;;;9.18;65.64;104518.97;4962570;28;20080;-55
2022/03/19 02:48:22;;;;;;;21.63;6.15;;;;;;;9.06;66.33;104524.94;4963038;28;20046;-60
2022/03/19 02:50:47;;;;;;;20.77;6.10;;;;;;;9.10;65.91;104519.16;4960638;28;20054;-55
2022/03/19 02:53:13;;;;;;;20.77;6.22;;;;;;;9.05;65.90;104510.09;4959427;28;20524;-55
2022/03/19 02:55:40;;;;;;;17.90;5.80;;;;;;;9.20;64.74;104507.00;4967653;28;20112;-55
2022/03/19 02:58:07;;;;;;;21.50;6.40;;;;;;;9.19;64.62;104509.47;4959501;28;20479;-57
2022/03/19 03:00:33;;;;;;;18.65;5.80;;;;;;;9.12;64.98;104505.47;4956180;28;20438;-56
2022/03/19 03:02:59;;;;;;;17.50;6.03;;;;;;;9.11;65.26;104505.34;4953973;28;20042;-57
2022/03/19 03:05:25;;;;;;;19.52;5.72;;;;;;;9.06;65.48;104510.22;4961624;28;20426;-54
2022/03/19 03:07:50;;;;;;;20.27;6.55;;;;;;;9.10;64.90;104507.06;4963690;28;20492;-55
2022/03/19 03:10:17;;;;;;;16.23;6.15;;;;;;;9.09;65.00;104506.97;4964890;28;20043;-54
2022/03/19 03:12:43;;;;;;;13.75;5.88;;;;;;;9.03;65.13;104507.34;4957094;28;21850;-56
2022/03/19 03:15:09;;;;;;;15.10;5.82;;;;;;;8.96;65.07;104503.38;4963794;28;20442;-59
2022/03/19 03:17:35;;;;;;;19.15;6.15;;;;;;;8.96;64.70;104492.97;4961442;28;20467;-57
2022/03/19 03:20:01;;;;;;;14.27;5.43;;;;;;;8.89;65.09;104495.00;4964825;28;20046;-57
2022/03/19 03:22:27;;;;;;;22.67;6.35;;;;;;;8.93;64.56;104495.34;4929577;28;20604;-57
2022/03/19 03:24:53;;;;;;;18.33;6.28;;;;;;;8.92;64.70;104485.72;4956062;28;20076;-57
2022/03/19 03:27:18;;;;;;;17.95;5.88;;;;;;;8.85;65.03;104488.63;4964056;28;20052;-57
2022/03/19 03:29:43;;;;;;;16.80;6.10;;;;;;;8.86;64.79;104484.34;4964640;28;20478;-58
2022/03/19 03:32:10;;;;;;;14.50;6.07;;;;;;;8.86;64.60;104485.25;4963683;28;20157;-57
2022/03/19 03:34:36;;;;;;;19.40;6.03;;;;;;;8.81;64.74;104496.09;4953331;28;20092;-59
2022/03/19 03:37:01;;;;;;;14.48;6.28;;;;;;;8.82;65.06;104490.09;4944058;28;20053;-57
2022/03/19 03:39:27;;;;;;;17.65;5.85;;;;;;;8.70;65.03;104484.84;4959987;28;20568;-58
2022/03/19 03:41:52;;;;;;;18.55;5.95;;;;;;;8.75;64.69;104482.59;4961688;28;20658;-57
2022/03/19 03:44:19;;;;;;;14.45;5.75;;;;;;;8.68;64.91;104488.09;4949777;28;20742;-57
2022/03/19 03:46:44;;;;;;;23.17;6.40;;;;;;;8.71;64.84;104485.75;4962406;28;20486;-55
2022/03/19 03:49:09;;;;;;;20.63;5.93;;;;;;;8.66;64.88;104487.97;4958376;28;20498;-57
2022/03/19 03:51:35;;;;;;;19.15;6.93;;;;;;;8.63;64.65;104482.53;4957039;28;20042;-57
2022/03/19 03:54:00;;;;;;;12.63;6.18;;;;;;;8.72;64.66;104482.38;4960030;28;20092;-58
2022/03/19 03:56:26;;;;;;;18.85;6.47;;;;;;;8.73;64.19;104473.75;4947627;28;20064;-59
2022/03/19 03:58:52;;;;;;;19.17;6.22;;;;;;;8.65;64.39;104481.00;4960865;28;20149;-57
2022/03/19 04:01:17;;;;;;;13.75;6.70;;;;;;;8.60;64.82;104473.63;4961154;28;20034;-55
2022/03/19 04:03:43;;;;;;;21.98;6.40;;;;;;;8.64;64.70;104476.56;4955977;28;20536;-56
2022/03/19 04:06:08;;;;;;;17.15;6.35;;;;;;;8.54;65.02;104480.13;4958914;28;20402;-56
2022/03/19 04:08:33;;;;;;;17.23;6.25;;;;;;;8.64;64.63;104476.56;4952095;28;20384;-56
2022/03/19 04:10:59;;;;;;;18.13;6.40;;;;;;;8.57;64.54;104482.06;4961435;28;20717;-56
2022/03/19 04:13:25;;;;;;;19.05;6.65;;;;;;;8.43;65.00;104480.97;4959317;28;20481;-57
2022/03/19 04:15:50;;;;;;;16.70;6.57;;;;;;;8.32;65.42;104479.22;4958389;28;20202;-57
2022/03/19 04:18:18;;;;;;;24.75;7.20;;;;;;;8.32;65.30;104474.00;4957128;28;20454;-57
2022/03/19 04:20:43;;;;;;;21.27;6.75;;;;;;;8.26;65.49;104489.09;4957181;28;20054;-54
2022/03/19 04:23:09;;;;;;;17.20;6.55;;;;;;;8.21;65.24;104481.69;4960229;28;20542;-55
2022/03/19 04:25:34;;;;;;;22.05;7.28;;;;;;;8.33;65.02;104483.63;4960954;28;20423;-52
2022/03/19 04:28:01;;;;;;;16.63;7.10;;;;;;;8.27;65.43;104474.41;4961138;28;20042;-55
2022/03/19 04:30:28;;;;;;;21.63;7.15;;;;;;;8.27;65.14;104477.91;4951432;28;20123;-55
2022/03/19 04:32:56;;;;;;;22.35;7.40;;;;;;;8.28;65.40;104476.22;4961596;28;20515;-56
2022/03/19 04:38:12;;;;;;;19.05;6.93;;;;;;;8.25;64.69;104474.25;4963123;28;20044;-55
2022/03/19 04:40:39;;;;;;;19.40;6.80;;;;;;;8.19;65.28;104478.06;4956071;28;20586;-55
2022/03/19 04:43:05;;;;;;;17.50;6.90;;;;;;;8.16;65.46;104476.16;4957449;28;20046;-57
2022/03/19 04:45:31;;;;;;;19.48;7.20;;;;;;;8.15;65.47;104477.84;4945271;28;20046;-56
2022/03/19 04:47:56;;;;;;;21.02;7.38;;;;;;;8.17;65.17;104483.16;4955281;28;20395;-56
2022/03/19 04:50:22;;;;;;;19.83;7.03;;;;;;;8.14;65.46;104465.63;4944349;28;20310;-61
2022/03/19 04:52:49;;;;;;;19.05;7.13;;;;;;;8.20;65.34;104467.81;4958756;28;20068;-55
2022/03/19 04:55:14;;;;;;;22.08;7.03;;;;;;;8.14;65.40;104459.50;4961252;28;20562;-56
2022/03/19 04:57:40;;;;;;;20.83;7.70;;;;;;;8.01;65.70;104461.91;4967902;28;20038;-53
2022/03/19 05:00:09;;;;;;;19.65;7.22;;;;;;;8.07;65.70;104460.72;4960938;28;20334;-55
2022/03/19 05:02:34;;;;;;;20.63;7.15;;;;;;;8.08;65.75;104470.31;4949719;28;20141;-55
2022/03/19 05:05:02;;;;;;;20.88;7.28;;;;;;;8.10;65.48;104460.06;4948773;28;20116;-56
2022/03/19 05:07:28;;;;;;;24.73;7.45;;;;;;;8.08;65.42;104457.34;4963950;28;20484;-56
2022/03/19 05:12:40;;;;;;;20.25;7.57;;;;;;;8.13;65.00;104458.59;4934687;28;20065;-56
2022/03/19 05:15:18;;;;;;;22.85;7.80;;;;;;;8.10;65.35;104465.25;4962643;28;20068;-58
2022/03/19 05:17:45;;;;;;;20.38;7.40;;;;;;;8.00;65.65;104467.88;4942848;28;20044;-56
2022/03/19 05:20:11;;;;;;;18.65;7.65;;;;;;;8.03;65.61;104466.44;4959868;28;20042;-56
2022/03/19 05:22:37;;;;;;;21.98;7.88;;;;;;;8.01;65.75;104464.50;4944810;28;20384;-55
2022/03/19 05:25:03;;;;;;;25.38;7.82;;;;;;;7.79;66.38;104476.53;4959678;28;20101;-56
2022/03/19 05:27:29;;;;;;;17.48;7.55;;;;;;;7.90;65.93;104471.44;4961613;28;20058;-57
2022/03/19 05:29:54;;;;;;;23.13;7.93;;;;;;;7.99;65.99;104464.38;4961873;28;20128;-55
2022/03/19 05:32:20;;;;;;;22.98;7.80;;;;;;;7.99;65.58;104466.09;4955981;28;20088;-58
2022/03/19 05:34:46;;;;;;;18.77;8.02;;;;;;;7.94;66.00;104470.88;4963732;28;20042;-58
2022/03/19 05:37:12;;;;;;;21.58;8.30;;;;;;;7.90;66.13;104468.84;4953653;28;20050;-55
2022/03/19 05:39:38;;;;;;;21.45;8.07;;;;;;;7.89;66.05;104464.41;4946389;28;20429;-56
2022/03/19 05:42:04;;;;;;;19.50;8.30;;;;;;;7.78;66.41;104469.53;4959598;28;20042;-57
2022/03/19 05:44:30;;;;;;;17.58;7.95;;;;;;;7.85;66.14;104467.56;4946740;28;20161;-54
2022/03/19 05:46:59;;;;;;;23.88;8.85;;;;;;;7.86;66.08;104461.59;4946479;28;20488;-56
2022/03/19 05:49:26;;;;;;;22.67;7.95;;;;;;;7.85;66.04;104464.97;4937165;28;20056;-55
2022/03/19 05:51:52;;;;;;;23.83;8.90;;;;;;;7.84;66.32;104468.34;4959004;28;20548;-54
2022/03/19 05:54:18;;;;;;;18.42;8.25;;;;;;;7.98;65.77;104467.78;4957979;28;20521;-55
2022/03/19 05:56:43;;;;;;;19.92;9.02;;;;;;;7.96;65.95;104471.94;4951740;28;20637;-55
2022/03/19 05:59:09;;;;;;;20.80;8.70;;;;;;;8.07;65.42;104472.78;4962157;28;20038;-55
2022/03/19 06:01:35;;;;;;;21.20;8.63;;;;;;;7.99;65.52;104468.69;4957060;28;20092;-55
2022/03/19 06:04:00;;;;;;;22.33;9.07;;;;;;;8.03;65.53;104473.34;4957479;28;20560;-55
2022/03/19 06:06:27;;;;;;;22.73;8.77;;;;;;;8.01;65.93;104473.22;4944116;28;20037;-56
2022/03/19 06:08:53;;;;;;;21.85;8.63;;;;;;;8.05;65.61;104467.47;4960598;28;20050;-56
2022/03/19 06:11:18;;;;;;;21.35;8.85;;;;;;;8.08;65.58;104475.53;4940289;28;20416;-56
2022/03/19 06:13:44;;;;;;;19.80;9.02;;;;;;;8.08;65.47;104466.81;4959157;28;20082;-55
2022/03/19 06:16:09;;;;;;;21.55;8.70;;;;;;;8.18;65.18;104478.84;4955838;28;20509;-54
2022/03/19 06:18:35;;;;;;;24.23;9.20;;;;;;;8.07;65.35;104471.09;4947361;28;20481;-58
2022/03/19 06:21:00;;;;;;;26.55;9.13;;;;;;;8.02;65.69;104472.44;4959335;28;20053;-57
2022/03/19 06:23:26;;;;;;;22.58;9.23;;;;;;;8.19;65.27;104473.78;4955899;28;20938;-56
2022/03/19 06:25:53;;;;;;;23.75;9.18;;;;;;;8.24;65.16;104466.34;4959954;28;20107;-53
2022/03/19 06:28:19;;;;;;;23.60;8.88;;;;;;;8.29;64.91;104476.34;4952856;28;20398;-53
2022/03/19 06:30:44;;;;;;;19.50;8.52;;;;;;;8.52;64.22;104480.81;4958879;28;20057;-57
2022/03/19 06:33:12;;;;;;;23.67;8.70;;;;;;;9.05;62.53;104474.56;4953569;28;20492;-58
2022/03/19 06:38:25;;;;;;;19.52;7.90;;;;;;;10.24;59.00;104473.97;4948098;28;20401;-55
2022/03/19 06:40:51;;;;;;;20.13;8.27;;;;;;;10.69;57.28;104458.03;4951578;28;20486;-56
2022/03/19 06:43:16;;;;;;;21.10;7.82;;;;;;;11.26;56.65;104466.38;4957055;28;20057;-56
2022/03/19 06:45:42;;;;;;;17.42;7.32;;;;;;;12.14;53.44;104464.38;4954520;28;20150;-56
2022/03/19 06:48:07;;;;;;;18.23;7.38;;;;;;;12.15;52.86;104455.75;4939062;28;20379;-56
2022/03/19 06:50:33;;;;;;;19.58;7.70;;;;;;;12.53;52.64;104460.78;4948680;28;20356;-57
2022/03/19 06:52:58;;;;;;;21.98;7.28;;;;;;;12.68;51.24;104454.69;4955403;28;20052;-57
2022/03/19 06:55:24;;;;;;;17.42;7.53;;;;;;;13.01;50.43;104451.50;4957461;28;20112;-58
2022/03/19 06:57:49;;;;;;;15.13;7.38;;;;;;;13.24;49.68;104458.13;4962407;28;20045;-57
2022/03/19 07:00:15;;;;;;;18.73;7.65;;;;;;;13.67;48.09;104451.06;4965804;28;21228;-57
2022/03/19 07:02:51;;;;;;;18.35;7.50;;;;;;;13.59;48.46;104447.09;4950740;28;20462;-56
2022/03/19 07:05:24;;;;;;;19.98;7.50;;;;;;;13.17;49.78;104458.59;4953107;28;20517;-57
2022/03/19 07:07:51;;;;;;;15.23;7.20;;;;;;;14.06;48.70;104449.78;4965420;28;20043;-57
2022/03/19 07:10:19;;;;;;;16.65;7.75;;;;;;;13.63;48.55;104457.84;4961821;28;20402;-59
2022/03/19 07:12:49;;;;;;;15.50;7.55;;;;;;;13.55;48.70;104455.59;4955294;28;20564;-56
2022/03/19 07:15:16;;;;;;;15.75;7.38;;;;;;;13.70;48.31;104452.16;4962045;28;20038;-55
2022/03/19 07:17:43;;;;;;;15.27;7.35;;;;;;;13.85;48.42;104459.06;4953902;28;20038;-55
2022/03/19 07:20:10;;;;;;;16.60;7.32;;;;;;;13.99;47.88;104458.13;4960963;28;20852;-55
2022/03/19 07:22:46;;;;;;;20.15;7.95;;;;;;;13.83;47.87;104461.63;4955926;28;20864;-55
2022/03/19 07:25:12;;;;;;;17.20;7.53;;;;;;;13.99;47.93;104460.75;4963364;28;20049;-57
2022/03/19 07:27:37;;;;;;;13.25;7.45;;;;;;;14.00;48.20;104455.59;4960252;28;20038;-57
2022/03/19 07:30:03;;;;;;;20.98;8.13;;;;;;;13.33;49.37;104463.94;4967670;28;20053;-58
2022/03/19 07:32:29;;;;;;;19.90;8.63;;;;;;;13.62;49.41;104461.28;4947494;28;20581;-56
2022/03/19 07:34:55;;;;;;;16.23;8.02;;;;;;;13.39;49.92;104457.34;4961276;28;20118;-57
2022/03/19 07:37:20;;;;;;;18.70;8.32;;;;;;;13.32;50.09;104454.25;4966923;28;20050;-57
2022/03/19 07:39:45;;;;;;;19.38;8.23;;;;;;;12.82;50.38;104448.56;4958823;28;20497;-56
2022/03/19 07:42:11;;;;;;;21.50;8.73;;;;;;;12.57;51.15;104452.28;4961954;28;20054;-56
2022/03/19 07:44:36;;;;;;;18.88;8.25;;;;;;;11.90;52.99;104467.13;4945486;28;20305;-57
2022/03/19 07:47:01;;;;;;;17.58;8.95;;;;;;;11.67;54.23;104461.28;4961924;28;20054;-56
2022/03/19 07:49:27;;;;;;;18.45;8.13;;;;;;;11.51;55.15;104458.47;4961536;28;20109;-57
2022/03/19 07:51:55;;;;;;;20.90;8.93;;;;;;;11.56;54.21;104459.69;4958570;28;20508;-55
2022/03/19 07:54:23;;;;;;;20.70;8.90;;;;;;;11.07;55.71;104457.19;4957424;28;20505;-56
2022/03/19 07:56:51;;;;;;;19.35;8.75;;;;;;;11.29;55.93;104452.59;4944589;28;20998;-56
2022/03/19 07:59:17;;;;;;;18.48;8.40;;;;;;;11.20;55.42;104445.06;4962260;28;20228;-57
2022/03/19 08:01:42;;;;;;;17.33;8.32;;;;;;;11.40;54.57;104446.41;4949070;28;20042;-53
2022/03/19 08:04:08;;;;;;;18.67;8.50;;;;;;;11.39;54.36;104448.13;4961637;28;20039;-55
2022/03/19 08:06:33;;;;;;;18.23;8.43;;;;;;;11.59;54.66;104446.78;4954655;28;20452;-55
2022/03/19 08:08:59;;;;;;;18.52;8.13;;;;;;;11.47;53.88;104455.53;4967881;28;20042;-55
2022/03/19 08:11:24;;;;;;;21.40;8.32;;;;;;;11.63;54.28;104448.84;4953950;28;20129;-56
2022/03/19 08:13:49;;;;;;;19.77;7.95;;;;;;;11.45;53.14;104454.53;4958873;28;20042;-57
2022/03/19 08:16:15;;;;;;;17.90;7.15;;;;;;;11.71;52.77;104454.56;4943012;28;20056;-57
2022/03/19 08:18:41;;;;;;;17.90;7.15;;;;;;;11.82;53.71;104460.53;4933630;28;20093;-57
2022/03/19 08:21:07;;;;;;;18.02;6.90;;;;;;;12.17;52.30;104453.22;4960272;28;20054;-55
2022/03/19 08:23:34;;;;;;;16.45;6.80;;;;;;;12.08;51.44;104450.00;4953652;28;20049;-56
2022/03/19 08:25:59;;;;;;;11.77;6.22;;;;;;;12.26;51.01;104448.56;4958782;28;20046;-57
2022/03/19 08:28:25;;;;;;;18.88;6.57;;;;;;;12.55;50.77;104437.31;4951559;28;20081;-59
2022/03/19 08:30:51;;;;;;;15.95;6.60;;;;;;;12.51;49.59;104443.16;4957945;28;20038;-55
2022/03/19 08:33:17;;;;;;;20.38;7.25;;;;;;;12.58;50.21;104448.88;4959362;28;20389;-55
2022/03/19 08:35:42;;;;;;;17.98;6.47;;;;;;;12.73;49.58;104440.16;4938023;28;20515;-56
2022/03/19 08:40:51;;;;;;;19.23;6.20;;;;;;;12.42;49.39;104450.44;4957898;28;20054;-57
2022/03/19 08:43:16;;;;;;;15.77;6.50;;;;;;;12.65;50.17;104441.41;4958956;28;20469;-56
2022/03/19 08:45:42;;;;;;;18.23;6.57;;;;;;;12.76;48.14;104435.09;4960500;28;20327;-57
2022/03/19 08:48:09;;;;;;;15.50;5.97;;;;;;;12.45;49.47;104434.94;4944018;28;20030;-56
2022/03/19 08:50:35;;;;;;;18.42;6.25;;;;;;;12.81;48.69;104438.91;4953170;28;20050;-55
2022/03/19 08:53:00;;;;;;;17.20;6.15;;;;;;;12.97;46.89;104447.81;4959441;28;20101;-54
2022/03/19 08:55:25;;;;;;;14.15;5.78;;;;;;;12.89;47.14;104438.56;4943867;28;20050;-56
2022/03/19 08:57:51;;;;;;;16.80;5.68;;;;;;;12.72;47.08;104439.25;4966691;28;20162;-57
2022/03/19 09:00:18;;;;;;;16.42;5.35;;;;;;;12.78;47.28;104436.09;4952792;28;21303;-57
2022/03/19 09:02:44;;;;;;;15.13;5.20;;;;;;;12.92;45.48;104440.47;4949922;28;20050;-56
2022/03/19 09:05:10;;;;;;;10.80;5.25;;;;;;;13.12;45.39;104433.78;4955391;28;20415;-55
2022/03/19 09:07:36;;;;;;;17.58;5.93;;;;;;;13.04;45.57;104411.50;4936336;28;20034;-57
2022/03/19 09:10:01;;;;;;;17.50;5.60;;;;;;;13.08;45.03;104418.72;4954819;28;20050;-56
2022/03/19 09:12:28;;;;;;;15.70;5.50;;;;;;;13.23;45.41;104430.16;4952359;28;20132;-56
2022/03/19 09:14:54;;;;;;;13.02;5.00;;;;;;;13.52;44.08;104418.72;4959211;28;20074;-56
2022/03/19 09:17:19;;;;;;;16.70;5.20;;;;;;;13.44;43.69;104420.91;4940953;28;20819;-56
2022/03/19 09:19:45;;;;;;;13.98;5.28;;;;;;;13.85;43.91;104417.09;4913899;28;20408;-59
2022/03/19 09:22:10;;;;;;;9.70;5.18;;;;;;;13.92;42.70;104420.16;4927626;28;20796;-56
2022/03/19 09:24:36;;;;;;;13.13;4.97;;;;;;;13.76;42.53;104422.75;4904832;28;21171;-57
2022/03/19 09:27:02;;;;;;;11.45;4.95;;;;;;;13.46;42.29;104418.38;4921482;28;20044;-59
2022/03/19 09:29:28;;;;;;;9.23;4.72;;;;;;;13.68;42.28;104413.53;4913800;28;20051;-58
2022/03/19 09:31:53;;;;;;;14.93;5.00;;;;;;;13.57;42.27;104420.78;4921248;28;20070;-56
2022/03/19 09:34:18;;;;;;;10.82;4.93;;;;;;;13.67;42.17;104415.25;4912695;28;20054;-56
2022/03/19 09:36:46;;;;;;;13.57;5.10;;;;;;;14.15;40.97;104410.94;4911245;28;20082;-57
2022/03/19 09:39:13;;;;;;;11.07;4.93;;;;;;;13.68;41.67;104418.78;4915626;28;20101;-59
2022/03/19 09:41:42;;;;;;;9.35;4.90;;;;;;;13.72;41.19;104407.66;4898805;28;20090;-56
2022/03/19 09:44:08;;;;;;;11.68;4.57;;;;;;;13.61;41.33;104409.66;4908698;28;20047;-57
2022/03/19 09:46:34;;;;;;;11.50;4.22;;;;;;;13.68;39.68;104405.66;4906120;28;20634;-55
2022/03/19 09:49:00;;;;;;;11.40;4.10;;;;;;;13.82;40.15;104400.41;4916856;28;20062;-55
2022/03/19 09:51:27;;;;;;;9.32;4.10;;;;;;;14.03;38.41;104403.28;4916050;28;20039;-55
2022/03/19 09:53:55;;;;;;;9.77;4.10;;;;;;;13.73;37.73;104393.72;4917491;28;20202;-57
2022/03/19 09:56:20;;;;;;;8.95;4.25;;;;;;;13.60;38.25;104391.25;4897991;28;20043;-53
2022/03/19 09:58:48;;;;;;;12.68;4.43;;;;;;;13.92;38.91;104380.81;4918866;28;20163;-56
2022/03/19 10:01:18;;;;;;;12.88;4.40;;;;;;;14.21;38.31;104382.41;4918281;28;20131;-56
2022/03/19 10:03:50;;;;;;;9.10;4.15;;;;;;;14.50;37.22;104370.88;4903725;28;20047;-56
2022/03/19 10:09:00;;;;;;;10.80;4.05;;;;;;;14.21;35.68;104371.91;4913536;28;20153;-56
2022/03/19 10:11:31;;;;;;;9.27;4.10;;;;;;;14.29;37.17;104360.09;4916059;28;20047;-58
2022/03/19 10:13:58;;;;;;;12.82;3.90;;;;;;;14.19;36.77;104366.59;4922364;28;20047;-61
2022/03/19 10:16:28;;;;;;;9.75;3.85;;;;;;;14.15;35.71;104355.81;4907199;28;20047;-61
2022/03/19 10:18:58;;;;;;;10.73;3.80;;;;;;;14.22;34.34;104351.00;4955119;23;20324;-55
2022/03/19 10:21:26;;;;;;;9.30;3.63;;;;;;;14.20;34.83;104350.03;4934976;28;20034;-55
2022/03/19 10:23:51;;;;;;;10.60;3.47;;;;;;;14.06;33.14;104345.75;4941467;28;20450;-55
2022/03/19 10:26:24;;;;;;;11.40;3.15;;;;;;;13.94;33.05;104338.94;4958450;28;20046;-56
2022/03/19 10:29:07;;;;;;;10.75;3.58;;;;;;;14.23;32.54;104333.53;4953912;28;20042;-55
2022/03/19 10:31:39;;;;;;;11.32;3.35;;;;;;;14.34;31.69;104328.84;4953475;28;20042;-56
2022/03/19 10:34:06;;;;;;;8.18;3.20;;;;;;;14.23;32.10;104339.69;4955332;28;20046;-56
2022/03/19 10:36:34;;;;;;;7.70;3.53;;;;;;;14.48;32.53;104326.16;4949596;28;20501;-56
2022/03/19 10:39:20;;;;;;;8.45;3.55;;;;;;;14.23;33.01;104328.28;4949555;28;20375;-56
2022/03/19 10:41:47;;;;;;;12.82;3.20;;;;;;;14.29;33.14;104327.69;4951095;28;20050;-55
2022/03/19 10:44:24;;;;;;;12.90;4.00;;;;;;;14.13;33.07;104311.16;4956138;28;20034;-57
2022/03/19 10:46:50;;;;;;;8.23;3.30;;;;;;;14.25;33.19;104313.53;4960976;28;20049;-56
2022/03/19 10:49:28;;;;;;;7.93;3.60;;;;;;;14.50;32.90;104302.63;4957210;28;20470;-56
2022/03/19 10:51:56;;;;;;;10.45;3.33;;;;;;;14.53;31.97;104294.88;4957563;28;20057;-55
2022/03/19 10:54:22;;;;;;;10.45;3.80;;;;;;;14.67;32.10;104295.59;4954100;28;20038;-59
2022/03/19 10:56:48;;;;;;;8.02;3.47;;;;;;;14.60;31.72;104302.25;4958911;28;20061;-55
2022/03/19 10:59:14;;;;;;;9.02;3.78;;;;;;;14.82;31.91;104286.75;4952327;28;20078;-56
2022/03/19 11:01:41;;;;;;;10.38;3.70;;;;;;;15.01;32.47;104286.84;4954155;28;20046;-57
2022/03/19 11:04:09;;;;;;;7.30;3.70;;;;;;;15.10;32.35;104277.63;4955911;28;20824;-56
2022/03/19 11:06:43;;;;;;;9.50;3.80;;;;;;;15.05;32.10;104272.16;4926646;28;20039;-55
2022/03/19 11:09:13;;;;;;;9.77;3.72;;;;;;;14.96;31.62;104276.94;4956183;28;20145;-55
2022/03/19 11:11:58;;;;;;;9.02;3.50;;;;;;;14.89;30.36;104278.34;4957446;28;20688;-55
2022/03/19 11:14:27;;;;;;;6.68;3.22;;;;;;;15.06;31.17;104266.06;4950401;28;20035;-55
2022/03/19 11:19:45;;;;;;;10.32;3.03;;;;;;;15.10;28.90;104254.88;4955164;28;20521;-56
2022/03/19 11:22:12;;;;;;;6.05;2.70;;;;;;;15.32;27.76;104241.91;4955165;28;20490;-58
2022/03/19 11:24:53;;;;;;;10.88;2.70;;;;;;;15.26;28.37;104251.25;4952400;28;21229;-57
2022/03/19 11:27:20;;;;;;;10.93;2.70;;;;;;;15.29;28.58;104236.53;4957528;28;20261;-57
2022/03/19 11:29:45;;;;;;;5.82;2.40;;;;;;;15.11;27.74;104235.66;4959789;28;20089;-56
2022/03/19 11:32:24;;;;;;;7.68;2.50;;;;;;;15.51;27.86;104230.53;4959100;28;20045;-57
2022/03/19 11:34:51;;;;;;;5.53;2.05;;;;;;;15.51;25.86;104217.38;4960255;28;20576;-57
2022/03/19 11:37:16;;;;;;;7.18;2.30;;;;;;;15.89;26.93;104220.88;4958574;28;20113;-55
2022/03/19 11:40:00;;;;;;;6.55;2.17;;;;;;;15.63;26.03;104217.06;4961218;28;20038;-56